Ransomville, New York
Current Conditions -  °F | °C
As of 4:17 PM on Wednesday 17 Dec 2014 (Local Time) from KIAG Reporting Station
Light Snow Light Snow  
Wind Chill: 22°   Ceiling: 1400
Heat Index: 33°   Visibility: 6mi
Dew Point: 29°   Wind: 20mph
Humidity: 85%   Direction: 250°WSW
Pressure: 29.93"   Gusts: NA
Location:  43.24°N, 78.91°W
Report Text: KIAG 172117Z 25017KT 6SM -RASN BR OVC014 01/M02 A2993 RMK AO2 RAB13 P0000 T00061017
Loading
Personal Weather Stations






























Interactive Weather Map New forecast layout! Learn more

10-Day Weather Forecast

Advertisements
Track Severe Weather on mobile